sensor_id;sensor_type;location;lat;lon;timestamp;P1;durP1;ratioP1;P2;durP2;ratioP2
3231;SDS011;1628;48.884;9.210;2023-01-26T00:00:45;38.93;;;28.70;;
3231;SDS011;1628;48.884;9.210;2023-01-26T00:03:12;39.77;;;28.10;;
3231;SDS011;1628;48.884;9.210;2023-01-26T00:05:39;40.67;;;28.93;;
3231;SDS011;1628;48.884;9.210;2023-01-26T00:08:06;40.50;;;28.57;;
3231;SDS011;1628;48.884;9.210;2023-01-26T00:10:34;49.33;;;30.80;;
3231;SDS011;1628;48.884;9.210;2023-01-26T00:13:01;40.97;;;27.50;;
3231;SDS011;1628;48.884;9.210;2023-01-26T00:15:28;36.70;;;27.53;;
3231;SDS011;1628;48.884;9.210;2023-01-26T00:17:58;38.07;;;26.80;;
3231;SDS011;1628;48.884;9.210;2023-01-26T00:20:25;37.07;;;27.43;;
3231;SDS011;1628;48.884;9.210;2023-01-26T00:22:52;37.00;;;28.40;;
3231;SDS011;1628;48.884;9.210;2023-01-26T00:25:19;34.83;;;25.60;;
3231;SDS011;1628;48.884;9.210;2023-01-26T00:27:45;37.70;;;27.07;;
3231;SDS011;1628;48.884;9.210;2023-01-26T00:30:12;31.83;;;24.70;;
3231;SDS011;1628;48.884;9.210;2023-01-26T00:32:39;32.30;;;23.63;;
3231;SDS011;1628;48.884;9.210;2023-01-26T00:35:07;34.93;;;24.80;;
3231;SDS011;1628;48.884;9.210;2023-01-26T00:37:34;35.07;;;25.37;;
3231;SDS011;1628;48.884;9.210;2023-01-26T00:40:01;34.27;;;25.53;;
3231;SDS011;1628;48.884;9.210;2023-01-26T00:42:28;29.00;;;23.80;;
3231;SDS011;1628;48.884;9.210;2023-01-26T00:44:54;34.10;;;24.77;;
3231;SDS011;1628;48.884;9.210;2023-01-26T00:47:21;34.10;;;25.23;;
3231;SDS011;1628;48.884;9.210;2023-01-26T00:49:48;34.90;;;25.33;;
3231;SDS011;1628;48.884;9.210;2023-01-26T00:52:16;32.90;;;23.40;;
3231;SDS011;1628;48.884;9.210;2023-01-26T00:54:43;31.80;;;24.40;;
3231;SDS011;1628;48.884;9.210;2023-01-26T00:57:09;31.00;;;22.57;;
3231;SDS011;1628;48.884;9.210;2023-01-26T00:59:36;33.17;;;25.20;;
3231;SDS011;1628;48.884;9.210;2023-01-26T01:02:03;30.30;;;23.93;;
3231;SDS011;1628;48.884;9.210;2023-01-26T01:04:30;28.07;;;21.73;;
3231;SDS011;1628;48.884;9.210;2023-01-26T01:06:56;33.63;;;24.60;;
3231;SDS011;1628;48.884;9.210;2023-01-26T01:09:24;30.23;;;23.00;;
3231;SDS011;1628;48.884;9.210;2023-01-26T01:11:51;30.23;;;23.80;;
3231;SDS011;1628;48.884;9.210;2023-01-26T01:14:18;30.03;;;22.37;;
3231;SDS011;1628;48.884;9.210;2023-01-26T01:16:45;28.90;;;20.93;;
3231;SDS011;1628;48.884;9.210;2023-01-26T01:19:12;29.30;;;22.70;;
3231;SDS011;1628;48.884;9.210;2023-01-26T01:21:40;29.50;;;23.07;;
3231;SDS011;1628;48.884;9.210;2023-01-26T01:24:08;26.57;;;20.77;;
3231;SDS011;1628;48.884;9.210;2023-01-26T01:26:36;27.43;;;21.27;;
3231;SDS011;1628;48.884;9.210;2023-01-26T01:29:04;31.47;;;22.87;;
3231;SDS011;1628;48.884;9.210;2023-01-26T01:31:31;27.30;;;22.40;;
3231;SDS011;1628;48.884;9.210;2023-01-26T01:33:58;30.77;;;22.87;;
3231;SDS011;1628;48.884;9.210;2023-01-26T01:36:24;30.87;;;23.07;;
3231;SDS011;1628;48.884;9.210;2023-01-26T01:38:51;29.23;;;22.17;;
3231;SDS011;1628;48.884;9.210;2023-01-26T01:41:19;30.27;;;22.37;;
3231;SDS011;1628;48.884;9.210;2023-01-26T01:43:48;29.60;;;24.00;;
3231;SDS011;1628;48.884;9.210;2023-01-26T01:46:16;31.50;;;24.50;;
3231;SDS011;1628;48.884;9.210;2023-01-26T01:48:50;34.03;;;24.60;;
3231;SDS011;1628;48.884;9.210;2023-01-26T01:51:20;27.47;;;22.60;;
3231;SDS011;1628;48.884;9.210;2023-01-26T01:53:55;28.57;;;22.30;;
3231;SDS011;1628;48.884;9.210;2023-01-26T01:56:24;27.57;;;22.13;;
3231;SDS011;1628;48.884;9.210;2023-01-26T01:58:56;30.57;;;23.60;;
3231;SDS011;1628;48.884;9.210;2023-01-26T02:01:24;25.23;;;20.43;;
3231;SDS011;1628;48.884;9.210;2023-01-26T02:03:53;28.50;;;21.13;;
3231;SDS011;1628;48.884;9.210;2023-01-26T02:06:23;23.63;;;19.80;;
3231;SDS011;1628;48.884;9.210;2023-01-26T02:08:55;27.27;;;21.27;;
3231;SDS011;1628;48.884;9.210;2023-01-26T02:11:23;26.80;;;20.30;;
3231;SDS011;1628;48.884;9.210;2023-01-26T02:13:54;25.27;;;20.60;;
3231;SDS011;1628;48.884;9.210;2023-01-26T02:16:23;26.40;;;21.17;;
3231;SDS011;1628;48.884;9.210;2023-01-26T02:18:50;27.97;;;21.00;;
3231;SDS011;1628;48.884;9.210;2023-01-26T02:21:17;27.50;;;20.33;;
3231;SDS011;1628;48.884;9.210;2023-01-26T02:23:50;23.70;;;19.83;;
3231;SDS011;1628;48.884;9.210;2023-01-26T02:26:34;27.07;;;20.80;;
3231;SDS011;1628;48.884;9.210;2023-01-26T02:29:03;24.67;;;19.10;;
3231;SDS011;1628;48.884;9.210;2023-01-26T02:31:32;22.10;;;18.63;;
3231;SDS011;1628;48.884;9.210;2023-01-26T02:33:59;26.80;;;20.17;;
3231;SDS011;1628;48.884;9.210;2023-01-26T02:36:27;23.73;;;19.50;;
3231;SDS011;1628;48.884;9.210;2023-01-26T02:38:57;22.70;;;18.93;;
3231;SDS011;1628;48.884;9.210;2023-01-26T02:41:32;23.03;;;19.70;;
3231;SDS011;1628;48.884;9.210;2023-01-26T02:44:17;25.73;;;18.83;;
3231;SDS011;1628;48.884;9.210;2023-01-26T02:46:44;23.83;;;18.73;;
3231;SDS011;1628;48.884;9.210;2023-01-26T02:49:11;22.77;;;19.17;;
3231;SDS011;1628;48.884;9.210;2023-01-26T02:52:10;27.20;;;20.20;;
3231;SDS011;1628;48.884;9.210;2023-01-26T02:54:37;25.47;;;20.13;;
3231;SDS011;1628;48.884;9.210;2023-01-26T02:57:21;22.70;;;17.60;;
3231;SDS011;1628;48.884;9.210;2023-01-26T02:59:49;23.33;;;18.90;;
3231;SDS011;1628;48.884;9.210;2023-01-26T03:02:15;23.50;;;19.00;;
3231;SDS011;1628;48.884;9.210;2023-01-26T03:04:42;24.63;;;20.03;;
3231;SDS011;1628;48.884;9.210;2023-01-26T03:07:09;21.30;;;18.00;;
3231;SDS011;1628;48.884;9.210;2023-01-26T03:09:35;22.47;;;18.37;;
3231;SDS011;1628;48.884;9.210;2023-01-26T03:12:02;21.40;;;16.67;;
3231;SDS011;1628;48.884;9.210;2023-01-26T03:14:29;25.07;;;20.37;;
3231;SDS011;1628;48.884;9.210;2023-01-26T03:16:57;29.70;;;21.70;;
3231;SDS011;1628;48.884;9.210;2023-01-26T03:19:24;30.20;;;22.50;;
3231;SDS011;1628;48.884;9.210;2023-01-26T03:22:08;28.23;;;22.17;;
3231;SDS011;1628;48.884;9.210;2023-01-26T03:24:53;25.70;;;19.50;;
3231;SDS011;1628;48.884;9.210;2023-01-26T03:27:38;29.53;;;20.70;;
3231;SDS011;1628;48.884;9.210;2023-01-26T03:30:08;26.93;;;18.77;;
3231;SDS011;1628;48.884;9.210;2023-01-26T03:32:36;25.73;;;20.80;;
3231;SDS011;1628;48.884;9.210;2023-01-26T03:35:03;29.20;;;21.30;;
3231;SDS011;1628;48.884;9.210;2023-01-26T03:37:31;30.10;;;22.83;;
3231;SDS011;1628;48.884;9.210;2023-01-26T03:40:00;34.10;;;24.60;;
3231;SDS011;1628;48.884;9.210;2023-01-26T03:42:45;31.10;;;22.50;;
3231;SDS011;1628;48.884;9.210;2023-01-26T03:45:29;32.70;;;22.73;;
3231;SDS011;1628;48.884;9.210;2023-01-26T03:48:15;27.00;;;22.13;;
3231;SDS011;1628;48.884;9.210;2023-01-26T03:50:59;28.50;;;21.70;;
3231;SDS011;1628;48.884;9.210;2023-01-26T03:53:43;31.93;;;22.93;;
3231;SDS011;1628;48.884;9.210;2023-01-26T03:56:27;29.27;;;22.63;;
3231;SDS011;1628;48.884;9.210;2023-01-26T03:58:57;31.57;;;22.87;;
3231;SDS011;1628;48.884;9.210;2023-01-26T04:01:32;32.80;;;23.60;;
3231;SDS011;1628;48.884;9.210;2023-01-26T04:04:01;32.83;;;24.20;;
3231;SDS011;1628;48.884;9.210;2023-01-26T04:06:46;37.50;;;24.93;;
3231;SDS011;1628;48.884;9.210;2023-01-26T04:09:31;34.93;;;25.67;;
3231;SDS011;1628;48.884;9.210;2023-01-26T04:11:58;33.53;;;24.13;;
3231;SDS011;1628;48.884;9.210;2023-01-26T04:14:25;33.40;;;25.77;;
3231;SDS011;1628;48.884;9.210;2023-01-26T04:17:09;36.70;;;24.60;;
3231;SDS011;1628;48.884;9.210;2023-01-26T04:19:54;33.13;;;24.07;;
3231;SDS011;1628;48.884;9.210;2023-01-26T04:22:39;34.87;;;24.73;;
3231;SDS011;1628;48.884;9.210;2023-01-26T04:25:09;32.73;;;24.40;;
3231;SDS011;1628;48.884;9.210;2023-01-26T04:27:37;34.53;;;25.30;;
3231;SDS011;1628;48.884;9.210;2023-01-26T04:30:04;32.40;;;23.90;;
3231;SDS011;1628;48.884;9.210;2023-01-26T04:32:32;31.90;;;23.10;;
3231;SDS011;1628;48.884;9.210;2023-01-26T04:35:00;34.80;;;23.27;;
3231;SDS011;1628;48.884;9.210;2023-01-26T04:37:27;31.47;;;23.70;;
3231;SDS011;1628;48.884;9.210;2023-01-26T04:39:54;33.77;;;25.03;;
3231;SDS011;1628;48.884;9.210;2023-01-26T04:42:21;35.47;;;23.60;;
3231;SDS011;1628;48.884;9.210;2023-01-26T04:44:48;31.60;;;23.63;;
3231;SDS011;1628;48.884;9.210;2023-01-26T04:47:15;35.93;;;23.10;;
3231;SDS011;1628;48.884;9.210;2023-01-26T04:49:42;37.43;;;25.07;;
3231;SDS011;1628;48.884;9.210;2023-01-26T04:52:10;29.70;;;22.83;;
3231;SDS011;1628;48.884;9.210;2023-01-26T04:54:37;33.77;;;24.40;;
3231;SDS011;1628;48.884;9.210;2023-01-26T04:57:04;30.50;;;22.80;;
3231;SDS011;1628;48.884;9.210;2023-01-26T04:59:31;34.33;;;23.93;;
3231;SDS011;1628;48.884;9.210;2023-01-26T05:01:58;37.90;;;25.50;;
3231;SDS011;1628;48.884;9.210;2023-01-26T05:04:25;35.30;;;24.93;;
3231;SDS011;1628;48.884;9.210;2023-01-26T05:06:52;43.30;;;24.27;;
3231;SDS011;1628;48.884;9.210;2023-01-26T05:09:20;34.33;;;24.87;;
3231;SDS011;1628;48.884;9.210;2023-01-26T05:11:46;34.40;;;23.90;;
3231;SDS011;1628;48.884;9.210;2023-01-26T05:14:13;35.60;;;24.77;;
3231;SDS011;1628;48.884;9.210;2023-01-26T05:16:40;33.00;;;24.03;;
3231;SDS011;1628;48.884;9.210;2023-01-26T05:19:07;35.03;;;25.13;;
3231;SDS011;1628;48.884;9.210;2023-01-26T05:21:33;34.30;;;23.77;;
3231;SDS011;1628;48.884;9.210;2023-01-26T05:24:00;35.17;;;24.53;;
3231;SDS011;1628;48.884;9.210;2023-01-26T05:26:28;36.30;;;25.17;;
3231;SDS011;1628;48.884;9.210;2023-01-26T05:28:55;37.07;;;24.63;;
3231;SDS011;1628;48.884;9.210;2023-01-26T05:31:21;31.30;;;23.20;;
3231;SDS011;1628;48.884;9.210;2023-01-26T05:33:48;34.20;;;23.90;;
3231;SDS011;1628;48.884;9.210;2023-01-26T05:36:14;33.50;;;24.77;;
3231;SDS011;1628;48.884;9.210;2023-01-26T05:38:41;32.33;;;24.57;;
3231;SDS011;1628;48.884;9.210;2023-01-26T05:41:08;37.20;;;26.43;;
3231;SDS011;1628;48.884;9.210;2023-01-26T05:43:36;36.83;;;25.77;;
3231;SDS011;1628;48.884;9.210;2023-01-26T05:46:03;33.37;;;24.53;;
3231;SDS011;1628;48.884;9.210;2023-01-26T05:48:29;32.53;;;24.40;;
3231;SDS011;1628;48.884;9.210;2023-01-26T05:50:56;32.43;;;25.97;;
3231;SDS011;1628;48.884;9.210;2023-01-26T05:53:23;30.70;;;23.50;;
3231;SDS011;1628;48.884;9.210;2023-01-26T05:55:49;31.53;;;23.70;;
3231;SDS011;1628;48.884;9.210;2023-01-26T05:58:16;34.60;;;24.87;;
3231;SDS011;1628;48.884;9.210;2023-01-26T06:00:44;36.80;;;24.90;;
3231;SDS011;1628;48.884;9.210;2023-01-26T06:03:11;37.00;;;25.43;;
3231;SDS011;1628;48.884;9.210;2023-01-26T06:05:38;33.80;;;24.90;;
3231;SDS011;1628;48.884;9.210;2023-01-26T06:08:04;32.07;;;23.50;;
3231;SDS011;1628;48.884;9.210;2023-01-26T06:10:31;30.77;;;23.53;;
3231;SDS011;1628;48.884;9.210;2023-01-26T06:12:58;29.13;;;23.33;;
3231;SDS011;1628;48.884;9.210;2023-01-26T06:15:25;33.17;;;23.50;;
3231;SDS011;1628;48.884;9.210;2023-01-26T06:17:53;33.50;;;24.23;;
3231;SDS011;1628;48.884;9.210;2023-01-26T06:20:20;37.07;;;24.80;;
3231;SDS011;1628;48.884;9.210;2023-01-26T06:22:47;34.70;;;24.80;;
3231;SDS011;1628;48.884;9.210;2023-01-26T06:25:13;33.77;;;24.63;;
3231;SDS011;1628;48.884;9.210;2023-01-26T06:27:40;33.83;;;23.30;;
3231;SDS011;1628;48.884;9.210;2023-01-26T06:30:09;32.67;;;25.40;;
3231;SDS011;1628;48.884;9.210;2023-01-26T06:32:36;34.50;;;25.43;;
3231;SDS011;1628;48.884;9.210;2023-01-26T06:35:05;31.80;;;24.50;;
3231;SDS011;1628;48.884;9.210;2023-01-26T06:37:32;33.87;;;24.70;;
3231;SDS011;1628;48.884;9.210;2023-01-26T06:39:59;36.63;;;26.33;;
3231;SDS011;1628;48.884;9.210;2023-01-26T06:42:26;39.03;;;25.47;;
3231;SDS011;1628;48.884;9.210;2023-01-26T06:44:53;30.97;;;22.70;;
3231;SDS011;1628;48.884;9.210;2023-01-26T06:47:21;36.70;;;25.30;;
3231;SDS011;1628;48.884;9.210;2023-01-26T06:49:48;35.00;;;25.50;;
3231;SDS011;1628;48.884;9.210;2023-01-26T06:52:20;33.30;;;24.00;;
3231;SDS011;1628;48.884;9.210;2023-01-26T06:54:50;31.03;;;23.33;;
3231;SDS011;1628;48.884;9.210;2023-01-26T06:57:16;30.97;;;23.30;;
3231;SDS011;1628;48.884;9.210;2023-01-26T06:59:43;29.20;;;22.47;;
3231;SDS011;1628;48.884;9.210;2023-01-26T07:02:11;32.33;;;23.03;;
3231;SDS011;1628;48.884;9.210;2023-01-26T07:04:42;37.60;;;23.60;;
3231;SDS011;1628;48.884;9.210;2023-01-26T07:07:09;26.67;;;20.50;;
3231;SDS011;1628;48.884;9.210;2023-01-26T07:09:37;30.80;;;21.47;;
3231;SDS011;1628;48.884;9.210;2023-01-26T07:12:04;30.47;;;22.93;;
3231;SDS011;1628;48.884;9.210;2023-01-26T07:14:31;28.60;;;22.20;;
3231;SDS011;1628;48.884;9.210;2023-01-26T07:16:58;32.50;;;22.80;;
3231;SDS011;1628;48.884;9.210;2023-01-26T07:19:25;33.20;;;23.00;;
3231;SDS011;1628;48.884;9.210;2023-01-26T07:21:54;31.47;;;23.67;;
3231;SDS011;1628;48.884;9.210;2023-01-26T07:24:20;32.60;;;23.90;;
3231;SDS011;1628;48.884;9.210;2023-01-26T07:26:48;31.80;;;23.30;;
3231;SDS011;1628;48.884;9.210;2023-01-26T07:29:15;25.70;;;21.40;;
3231;SDS011;1628;48.884;9.210;2023-01-26T07:31:42;27.30;;;21.23;;
3231;SDS011;1628;48.884;9.210;2023-01-26T07:34:09;30.10;;;22.13;;
3231;SDS011;1628;48.884;9.210;2023-01-26T07:36:36;29.83;;;21.40;;
3231;SDS011;1628;48.884;9.210;2023-01-26T07:39:03;29.70;;;21.47;;
3231;SDS011;1628;48.884;9.210;2023-01-26T07:41:30;27.33;;;20.90;;
3231;SDS011;1628;48.884;9.210;2023-01-26T07:43:58;31.90;;;22.50;;
3231;SDS011;1628;48.884;9.210;2023-01-26T07:46:25;30.80;;;22.00;;
3231;SDS011;1628;48.884;9.210;2023-01-26T07:48:51;33.33;;;22.57;;
3231;SDS011;1628;48.884;9.210;2023-01-26T07:51:18;32.80;;;22.73;;
3231;SDS011;1628;48.884;9.210;2023-01-26T07:53:45;33.20;;;23.60;;
3231;SDS011;1628;48.884;9.210;2023-01-26T07:56:14;32.00;;;24.90;;
3231;SDS011;1628;48.884;9.210;2023-01-26T07:58:47;30.43;;;21.97;;
3231;SDS011;1628;48.884;9.210;2023-01-26T08:01:16;33.40;;;22.77;;
3231;SDS011;1628;48.884;9.210;2023-01-26T08:03:43;28.07;;;22.30;;
3231;SDS011;1628;48.884;9.210;2023-01-26T08:06:11;24.47;;;18.87;;
3231;SDS011;1628;48.884;9.210;2023-01-26T08:08:38;25.77;;;19.30;;
3231;SDS011;1628;48.884;9.210;2023-01-26T08:11:05;26.83;;;20.50;;
3231;SDS011;1628;48.884;9.210;2023-01-26T08:13:33;30.00;;;20.13;;
3231;SDS011;1628;48.884;9.210;2023-01-26T08:16:00;23.37;;;18.50;;
3231;SDS011;1628;48.884;9.210;2023-01-26T08:18:29;25.47;;;18.90;;
3231;SDS011;1628;48.884;9.210;2023-01-26T08:20:56;23.40;;;18.47;;
3231;SDS011;1628;48.884;9.210;2023-01-26T08:23:23;24.23;;;18.20;;
3231;SDS011;1628;48.884;9.210;2023-01-26T08:25:49;24.23;;;17.80;;
3231;SDS011;1628;48.884;9.210;2023-01-26T08:28:16;22.80;;;17.70;;
3231;SDS011;1628;48.884;9.210;2023-01-26T08:30:43;28.50;;;20.27;;
3231;SDS011;1628;48.884;9.210;2023-01-26T08:33:09;25.30;;;19.23;;
3231;SDS011;1628;48.884;9.210;2023-01-26T08:35:37;26.33;;;20.17;;
3231;SDS011;1628;48.884;9.210;2023-01-26T08:38:04;25.77;;;20.70;;
3231;SDS011;1628;48.884;9.210;2023-01-26T08:40:31;27.97;;;19.27;;
3231;SDS011;1628;48.884;9.210;2023-01-26T08:43:01;29.50;;;19.90;;
3231;SDS011;1628;48.884;9.210;2023-01-26T08:45:28;26.07;;;18.40;;
3231;SDS011;1628;48.884;9.210;2023-01-26T08:47:55;26.33;;;19.60;;
3231;SDS011;1628;48.884;9.210;2023-01-26T08:50:22;27.60;;;20.53;;
3231;SDS011;1628;48.884;9.210;2023-01-26T08:52:51;26.80;;;20.43;;
3231;SDS011;1628;48.884;9.210;2023-01-26T08:55:20;26.30;;;18.63;;
3231;SDS011;1628;48.884;9.210;2023-01-26T08:57:50;27.00;;;20.37;;
3231;SDS011;1628;48.884;9.210;2023-01-26T09:00:19;27.37;;;21.47;;
3231;SDS011;1628;48.884;9.210;2023-01-26T09:02:46;26.87;;;19.67;;
3231;SDS011;1628;48.884;9.210;2023-01-26T09:05:14;32.37;;;21.80;;
3231;SDS011;1628;48.884;9.210;2023-01-26T09:07:40;31.37;;;21.53;;
3231;SDS011;1628;48.884;9.210;2023-01-26T09:10:10;27.93;;;21.13;;
3231;SDS011;1628;48.884;9.210;2023-01-26T09:12:36;25.97;;;19.77;;
3231;SDS011;1628;48.884;9.210;2023-01-26T09:15:04;23.83;;;17.93;;
3231;SDS011;1628;48.884;9.210;2023-01-26T09:17:31;27.60;;;18.77;;
3231;SDS011;1628;48.884;9.210;2023-01-26T09:19:58;30.50;;;20.93;;
3231;SDS011;1628;48.884;9.210;2023-01-26T09:22:25;25.67;;;19.43;;
3231;SDS011;1628;48.884;9.210;2023-01-26T09:24:52;25.90;;;19.90;;
3231;SDS011;1628;48.884;9.210;2023-01-26T09:27:20;24.00;;;18.53;;
3231;SDS011;1628;48.884;9.210;2023-01-26T09:29:46;23.00;;;18.10;;
3231;SDS011;1628;48.884;9.210;2023-01-26T09:32:13;26.07;;;18.27;;
3231;SDS011;1628;48.884;9.210;2023-01-26T09:34:39;24.03;;;17.90;;
3231;SDS011;1628;48.884;9.210;2023-01-26T09:37:06;21.93;;;17.30;;
3231;SDS011;1628;48.884;9.210;2023-01-26T09:39:33;23.67;;;17.07;;
3231;SDS011;1628;48.884;9.210;2023-01-26T09:42:03;23.80;;;16.60;;
3231;SDS011;1628;48.884;9.210;2023-01-26T09:44:54;21.10;;;16.50;;
3231;SDS011;1628;48.884;9.210;2023-01-26T09:47:27;21.80;;;16.40;;
3231;SDS011;1628;48.884;9.210;2023-01-26T09:50:01;22.47;;;16.87;;
3231;SDS011;1628;48.884;9.210;2023-01-26T09:52:34;22.70;;;17.17;;
3231;SDS011;1628;48.884;9.210;2023-01-26T09:55:05;18.70;;;15.47;;
3231;SDS011;1628;48.884;9.210;2023-01-26T09:57:39;25.40;;;16.00;;
3231;SDS011;1628;48.884;9.210;2023-01-26T10:00:15;22.03;;;16.30;;
3231;SDS011;1628;48.884;9.210;2023-01-26T10:02:54;20.20;;;15.87;;
3231;SDS011;1628;48.884;9.210;2023-01-26T10:05:31;22.53;;;16.30;;
3231;SDS011;1628;48.884;9.210;2023-01-26T10:08:06;21.50;;;16.23;;
3231;SDS011;1628;48.884;9.210;2023-01-26T10:10:37;21.70;;;16.27;;
3231;SDS011;1628;48.884;9.210;2023-01-26T10:13:07;20.50;;;14.67;;
3231;SDS011;1628;48.884;9.210;2023-01-26T10:15:39;18.97;;;15.33;;
3231;SDS011;1628;48.884;9.210;2023-01-26T10:18:10;19.80;;;14.00;;
3231;SDS011;1628;48.884;9.210;2023-01-26T10:20:42;17.70;;;14.50;;
3231;SDS011;1628;48.884;9.210;2023-01-26T10:23:13;18.10;;;14.27;;
3231;SDS011;1628;48.884;9.210;2023-01-26T10:25:42;15.30;;;12.90;;
3231;SDS011;1628;48.884;9.210;2023-01-26T10:28:11;18.93;;;15.13;;
3231;SDS011;1628;48.884;9.210;2023-01-26T10:30:44;18.07;;;15.20;;
3231;SDS011;1628;48.884;9.210;2023-01-26T10:33:13;19.40;;;14.87;;
3231;SDS011;1628;48.884;9.210;2023-01-26T10:35:43;19.60;;;15.17;;
3231;SDS011;1628;48.884;9.210;2023-01-26T10:41:19;16.20;;;12.57;;
3231;SDS011;1628;48.884;9.210;2023-01-26T10:43:49;19.00;;;13.40;;
3231;SDS011;1628;48.884;9.210;2023-01-26T10:46:26;17.07;;;13.13;;
3231;SDS011;1628;48.884;9.210;2023-01-26T10:48:58;18.40;;;14.73;;
3231;SDS011;1628;48.884;9.210;2023-01-26T10:51:28;18.43;;;14.03;;
3231;SDS011;1628;48.884;9.210;2023-01-26T10:56:48;16.13;;;13.00;;
3231;SDS011;1628;48.884;9.210;2023-01-26T10:59:30;16.00;;;13.10;;
3231;SDS011;1628;48.884;9.210;2023-01-26T11:02:00;18.17;;;14.50;;
3231;SDS011;1628;48.884;9.210;2023-01-26T11:04:51;18.47;;;13.70;;
3231;SDS011;1628;48.884;9.210;2023-01-26T11:07:28;16.07;;;13.50;;
3231;SDS011;1628;48.884;9.210;2023-01-26T11:09:58;18.10;;;14.00;;
3231;SDS011;1628;48.884;9.210;2023-01-26T11:12:46;17.10;;;14.10;;
3231;SDS011;1628;48.884;9.210;2023-01-26T11:15:17;16.67;;;12.43;;
3231;SDS011;1628;48.884;9.210;2023-01-26T11:17:49;16.50;;;13.57;;
3231;SDS011;1628;48.884;9.210;2023-01-26T11:23:25;17.73;;;13.43;;
3231;SDS011;1628;48.884;9.210;2023-01-26T11:26:11;17.97;;;13.93;;
3231;SDS011;1628;48.884;9.210;2023-01-26T11:29:11;18.03;;;13.20;;
3231;SDS011;1628;48.884;9.210;2023-01-26T11:31:54;18.70;;;14.87;;
3231;SDS011;1628;48.884;9.210;2023-01-26T11:34:30;18.33;;;14.13;;
3231;SDS011;1628;48.884;9.210;2023-01-26T11:37:17;19.03;;;13.60;;
3231;SDS011;1628;48.884;9.210;2023-01-26T11:40:00;16.80;;;13.43;;
3231;SDS011;1628;48.884;9.210;2023-01-26T11:42:39;18.13;;;13.40;;
3231;SDS011;1628;48.884;9.210;2023-01-26T11:45:16;17.43;;;13.50;;
3231;SDS011;1628;48.884;9.210;2023-01-26T11:48:01;15.80;;;13.07;;
3231;SDS011;1628;48.884;9.210;2023-01-26T11:50:40;16.13;;;13.47;;
3231;SDS011;1628;48.884;9.210;2023-01-26T11:53:17;17.43;;;14.57;;
3231;SDS011;1628;48.884;9.210;2023-01-26T11:55:55;19.67;;;14.70;;
3231;SDS011;1628;48.884;9.210;2023-01-26T11:58:33;22.10;;;16.17;;
3231;SDS011;1628;48.884;9.210;2023-01-26T12:01:05;23.50;;;18.00;;
3231;SDS011;1628;48.884;9.210;2023-01-26T12:03:37;22.33;;;18.10;;
3231;SDS011;1628;48.884;9.210;2023-01-26T12:06:13;24.20;;;19.00;;
3231;SDS011;1628;48.884;9.210;2023-01-26T12:08:42;25.40;;;19.67;;
3231;SDS011;1628;48.884;9.210;2023-01-26T12:11:17;23.53;;;17.37;;
3231;SDS011;1628;48.884;9.210;2023-01-26T12:13:50;22.97;;;17.77;;
3231;SDS011;1628;48.884;9.210;2023-01-26T12:16:22;26.17;;;18.50;;
3231;SDS011;1628;48.884;9.210;2023-01-26T12:18:55;25.00;;;18.30;;
3231;SDS011;1628;48.884;9.210;2023-01-26T12:21:32;29.40;;;21.27;;
3231;SDS011;1628;48.884;9.210;2023-01-26T12:24:02;26.20;;;18.10;;
3231;SDS011;1628;48.884;9.210;2023-01-26T12:26:32;27.60;;;19.37;;
3231;SDS011;1628;48.884;9.210;2023-01-26T12:29:02;26.70;;;18.70;;
3231;SDS011;1628;48.884;9.210;2023-01-26T12:31:39;29.63;;;18.70;;
3231;SDS011;1628;48.884;9.210;2023-01-26T12:34:10;26.40;;;19.90;;
3231;SDS011;1628;48.884;9.210;2023-01-26T12:36:41;24.40;;;18.03;;
3231;SDS011;1628;48.884;9.210;2023-01-26T12:39:15;25.83;;;18.40;;
3231;SDS011;1628;48.884;9.210;2023-01-26T12:41:59;23.83;;;18.20;;
3231;SDS011;1628;48.884;9.210;2023-01-26T12:44:35;23.57;;;18.87;;
3231;SDS011;1628;48.884;9.210;2023-01-26T12:47:05;22.87;;;17.00;;
3231;SDS011;1628;48.884;9.210;2023-01-26T12:49:36;25.03;;;17.53;;
3231;SDS011;1628;48.884;9.210;2023-01-26T12:52:11;24.50;;;19.23;;
3231;SDS011;1628;48.884;9.210;2023-01-26T12:54:44;29.83;;;18.53;;
3231;SDS011;1628;48.884;9.210;2023-01-26T12:57:16;25.37;;;18.43;;
3231;SDS011;1628;48.884;9.210;2023-01-26T12:59:46;24.43;;;17.70;;
3231;SDS011;1628;48.884;9.210;2023-01-26T13:02:19;24.23;;;17.27;;
3231;SDS011;1628;48.884;9.210;2023-01-26T13:04:50;24.53;;;19.27;;
3231;SDS011;1628;48.884;9.210;2023-01-26T13:07:32;24.07;;;18.40;;
3231;SDS011;1628;48.884;9.210;2023-01-26T13:10:07;23.90;;;17.57;;
3231;SDS011;1628;48.884;9.210;2023-01-26T13:12:45;22.30;;;16.70;;
3231;SDS011;1628;48.884;9.210;2023-01-26T13:15:13;19.90;;;15.80;;
3231;SDS011;1628;48.884;9.210;2023-01-26T13:17:49;23.23;;;16.90;;
3231;SDS011;1628;48.884;9.210;2023-01-26T13:26:17;23.13;;;17.77;;
3231;SDS011;1628;48.884;9.210;2023-01-26T13:28:46;25.20;;;19.40;;
3231;SDS011;1628;48.884;9.210;2023-01-26T13:31:27;26.13;;;19.97;;
3231;SDS011;1628;48.884;9.210;2023-01-26T13:33:55;22.53;;;18.10;;
3231;SDS011;1628;48.884;9.210;2023-01-26T13:36:25;24.47;;;16.90;;
3231;SDS011;1628;48.884;9.210;2023-01-26T13:38:58;22.90;;;18.10;;
3231;SDS011;1628;48.884;9.210;2023-01-26T13:41:29;24.60;;;20.10;;
3231;SDS011;1628;48.884;9.210;2023-01-26T13:43:58;23.47;;;17.20;;
3231;SDS011;1628;48.884;9.210;2023-01-26T13:46:33;20.40;;;16.00;;
3231;SDS011;1628;48.884;9.210;2023-01-26T13:49:03;22.87;;;16.47;;
3231;SDS011;1628;48.884;9.210;2023-01-26T13:51:31;23.03;;;17.90;;
3231;SDS011;1628;48.884;9.210;2023-01-26T13:54:01;20.83;;;16.67;;
3231;SDS011;1628;48.884;9.210;2023-01-26T13:56:31;24.60;;;16.77;;
3231;SDS011;1628;48.884;9.210;2023-01-26T13:59:02;23.20;;;16.20;;
3231;SDS011;1628;48.884;9.210;2023-01-26T14:01:41;23.00;;;18.77;;
3231;SDS011;1628;48.884;9.210;2023-01-26T14:04:11;21.83;;;16.33;;
3231;SDS011;1628;48.884;9.210;2023-01-26T14:06:40;21.00;;;16.03;;
3231;SDS011;1628;48.884;9.210;2023-01-26T14:09:12;20.90;;;16.13;;
3231;SDS011;1628;48.884;9.210;2023-01-26T14:11:40;19.50;;;15.47;;
3231;SDS011;1628;48.884;9.210;2023-01-26T14:14:10;18.70;;;13.63;;
3231;SDS011;1628;48.884;9.210;2023-01-26T14:16:46;24.33;;;14.67;;
3231;SDS011;1628;48.884;9.210;2023-01-26T14:19:13;21.40;;;15.60;;
3231;SDS011;1628;48.884;9.210;2023-01-26T14:21:44;20.60;;;15.20;;
3231;SDS011;1628;48.884;9.210;2023-01-26T14:24:14;16.33;;;14.53;;
3231;SDS011;1628;48.884;9.210;2023-01-26T14:26:41;19.10;;;16.03;;
3231;SDS011;1628;48.884;9.210;2023-01-26T14:29:11;24.60;;;17.80;;
3231;SDS011;1628;48.884;9.210;2023-01-26T14:31:45;23.80;;;16.60;;
3231;SDS011;1628;48.884;9.210;2023-01-26T14:34:16;22.10;;;18.60;;
3231;SDS011;1628;48.884;9.210;2023-01-26T14:36:45;25.23;;;18.63;;
3231;SDS011;1628;48.884;9.210;2023-01-26T14:39:15;21.63;;;16.70;;
3231;SDS011;1628;48.884;9.210;2023-01-26T14:41:43;20.30;;;15.03;;
3231;SDS011;1628;48.884;9.210;2023-01-26T14:44:11;22.80;;;17.10;;
3231;SDS011;1628;48.884;9.210;2023-01-26T14:46:42;20.97;;;14.80;;
3231;SDS011;1628;48.884;9.210;2023-01-26T14:49:21;24.83;;;17.87;;
3231;SDS011;1628;48.884;9.210;2023-01-26T14:51:54;23.13;;;18.60;;
3231;SDS011;1628;48.884;9.210;2023-01-26T14:54:26;20.77;;;16.07;;
3231;SDS011;1628;48.884;9.210;2023-01-26T14:56:55;23.50;;;17.43;;
3231;SDS011;1628;48.884;9.210;2023-01-26T14:59:24;20.77;;;15.13;;
3231;SDS011;1628;48.884;9.210;2023-01-26T15:02:02;22.37;;;14.80;;
3231;SDS011;1628;48.884;9.210;2023-01-26T15:04:38;21.23;;;16.00;;
3231;SDS011;1628;48.884;9.210;2023-01-26T15:09:58;21.90;;;16.57;;
3231;SDS011;1628;48.884;9.210;2023-01-26T15:12:26;21.70;;;16.27;;
3231;SDS011;1628;48.884;9.210;2023-01-26T15:14:58;26.40;;;17.10;;
3231;SDS011;1628;48.884;9.210;2023-01-26T15:17:27;22.60;;;16.63;;
3231;SDS011;1628;48.884;9.210;2023-01-26T15:20:01;21.33;;;16.47;;
3231;SDS011;1628;48.884;9.210;2023-01-26T15:22:27;22.77;;;15.90;;
3231;SDS011;1628;48.884;9.210;2023-01-26T15:25:01;19.80;;;15.97;;